createdAt,value
2023-03-21T00:02:08.849Z,76.73
2023-03-21T00:07:26.690Z,76.83
2023-03-21T00:10:01.902Z,75.52
2023-03-21T00:12:37.827Z,76.32
2023-03-21T00:15:07.141Z,75.82
2023-03-21T00:17:36.184Z,77.02
2023-03-21T00:20:06.650Z,78.77
2023-03-21T00:22:36.998Z,78.02
2023-03-21T00:25:05.859Z,78.07
2023-03-21T00:27:53.307Z,77.42
2023-03-21T00:30:24.056Z,76.57
2023-03-21T00:32:56.609Z,75.71
2023-03-21T00:38:14.238Z,75.29
2023-03-21T00:40:48.871Z,75.00
2023-03-21T00:43:19.588Z,75.14
2023-03-21T00:45:47.916Z,75.28
2023-03-21T00:48:19.425Z,75.06
2023-03-21T00:50:48.188Z,75.33
2023-03-21T00:53:18.191Z,76.54
2023-03-21T00:55:47.716Z,76.52
2023-03-21T00:58:16.705Z,75.56
2023-03-21T01:00:47.711Z,75.90
2023-03-21T01:03:25.022Z,75.33
2023-03-21T01:06:07.412Z,75.45
2023-03-21T01:08:51.768Z,75.11
2023-03-21T01:11:24.453Z,75.21
2023-03-21T01:13:57.815Z,74.51
2023-03-21T01:16:36.139Z,74.35
2023-03-21T01:19:09.400Z,75.53
2023-03-21T01:21:45.551Z,75.11
2023-03-21T01:24:15.430Z,75.41
2023-03-21T01:26:43.489Z,75.39
2023-03-21T01:29:11.909Z,74.67
2023-03-21T01:31:40.466Z,74.71
2023-03-21T01:34:08.859Z,74.95
2023-03-21T01:36:36.812Z,75.50
2023-03-21T01:39:08.408Z,76.70
2023-03-21T01:41:43.455Z,77.47
2023-03-21T01:44:24.446Z,77.41
2023-03-21T01:47:12.310Z,77.21
2023-03-21T01:49:49.807Z,77.12
2023-03-21T01:52:37.489Z,76.65
2023-03-21T01:55:13.271Z,76.68
2023-03-21T01:58:07.317Z,76.13
2023-03-21T02:01:09.235Z,76.95
2023-03-21T02:03:51.295Z,77.47
2023-03-21T02:06:40.929Z,77.76
2023-03-21T02:09:27.364Z,77.54
2023-03-21T02:11:56.398Z,77.72
2023-03-21T02:14:33.643Z,78.30
2023-03-21T02:17:13.763Z,78.09
2023-03-21T02:20:17.189Z,78.15
2023-03-21T02:23:04.862Z,78.03
2023-03-21T02:25:59.421Z,77.83
2023-03-21T02:28:37.021Z,78.55
2023-03-21T02:31:22.669Z,79.99
2023-03-21T02:34:23.217Z,80.25
2023-03-21T02:37:04.081Z,81.45
2023-03-21T02:39:42.622Z,82.60
2023-03-21T02:42:21.313Z,81.45
2023-03-21T02:44:59.958Z,80.10
2023-03-21T02:47:35.172Z,79.20
2023-03-21T02:50:13.384Z,79.73
2023-03-21T02:52:49.314Z,81.03
2023-03-21T02:55:22.348Z,81.13
2023-03-21T02:58:12.337Z,81.81
2023-03-21T03:00:45.349Z,81.98
2023-03-21T03:03:33.077Z,81.89
2023-03-21T03:06:06.478Z,81.95
2023-03-21T03:09:01.425Z,81.88
2023-03-21T03:11:32.415Z,81.89
2023-03-21T03:17:19.519Z,82.71
2023-03-21T03:20:15.674Z,81.86
2023-03-21T03:22:53.795Z,80.75
2023-03-21T03:25:41.681Z,79.87
2023-03-21T03:28:15.599Z,79.97
2023-03-21T03:30:57.476Z,81.07
2023-03-21T03:33:38.773Z,80.93
2023-03-21T03:36:14.864Z,80.91
2023-03-21T03:38:49.647Z,81.32
2023-03-21T03:41:25.969Z,81.34
2023-03-21T03:44:02.522Z,81.30
2023-03-21T03:46:40.550Z,80.93
2023-03-21T03:49:15.514Z,80.65
2023-03-21T03:51:52.057Z,82.21
2023-03-21T03:54:45.223Z,82.88
2023-03-21T03:57:18.754Z,82.81
2023-03-21T03:59:47.993Z,82.99
2023-03-21T04:02:24.438Z,82.85
2023-03-21T04:04:53.765Z,82.52
2023-03-21T04:07:23.330Z,82.91
2023-03-21T04:09:54.974Z,82.79
2023-03-21T04:12:24.900Z,82.54
2023-03-21T04:15:13.038Z,83.36
2023-03-21T04:17:46.613Z,83.28
2023-03-21T04:20:23.862Z,82.95
2023-03-21T04:23:03.003Z,82.64
2023-03-21T04:25:34.098Z,82.31
2023-03-21T04:28:06.649Z,82.82
2023-03-21T04:31:00.284Z,82.89
2023-03-21T04:33:29.240Z,83.87
2023-03-21T04:35:59.018Z,83.73
2023-03-21T04:38:33.828Z,83.51
2023-03-21T04:41:05.347Z,83.45
2023-03-21T04:43:34.827Z,83.55
2023-03-21T04:46:02.780Z,83.28
2023-03-21T04:48:30.929Z,82.60
2023-03-21T04:51:01.183Z,83.07
2023-03-21T04:53:32.688Z,84.22
2023-03-21T04:56:00.715Z,83.85
2023-03-21T04:58:28.939Z,83.12
2023-03-21T05:00:58.243Z,84.50
2023-03-21T05:03:28.666Z,84.15
2023-03-21T05:05:56.553Z,84.19
2023-03-21T05:08:24.358Z,83.57
2023-03-21T05:10:52.266Z,82.80
2023-03-21T05:13:21.560Z,82.75
2023-03-21T05:15:50.242Z,82.49
2023-03-21T05:18:24.755Z,82.36
2023-03-21T05:21:13.436Z,82.55
2023-03-21T05:23:41.888Z,82.28
2023-03-21T05:26:11.242Z,82.49
2023-03-21T05:28:50.052Z,83.83
2023-03-21T05:31:19.442Z,83.02
2023-03-21T05:33:52.151Z,82.44
2023-03-21T05:36:21.712Z,84.37
2023-03-21T05:38:49.905Z,84.16
2023-03-21T05:41:19.413Z,83.29
2023-03-21T05:43:48.373Z,83.35
2023-03-21T05:46:17.156Z,83.44
2023-03-21T05:48:48.462Z,82.46
2023-03-21T05:51:20.126Z,83.39
2023-03-21T05:53:48.580Z,83.46
2023-03-21T05:56:17.487Z,83.31
2023-03-21T05:58:50.990Z,83.79
2023-03-21T06:01:20.040Z,83.52
2023-03-21T06:04:03.793Z,83.44
2023-03-21T06:06:33.365Z,84.11
2023-03-21T06:09:03.883Z,83.16
2023-03-21T06:11:36.047Z,82.68
2023-03-21T06:14:30.133Z,82.24
2023-03-21T06:17:16.115Z,81.61
2023-03-21T06:19:49.586Z,81.25
2023-03-21T06:22:45.356Z,81.02
2023-03-21T06:25:13.601Z,80.91
2023-03-21T06:27:44.154Z,80.59
2023-03-21T06:30:13.444Z,80.34
2023-03-21T06:32:53.064Z,80.01
2023-03-21T06:35:21.155Z,79.46
2023-03-21T06:37:50.989Z,79.23
2023-03-21T06:40:22.846Z,79.52
2023-03-21T06:42:52.114Z,78.94
2023-03-21T06:45:20.195Z,79.06
2023-03-21T06:47:48.402Z,79.70
2023-03-21T06:50:26.932Z,79.20
2023-03-21T06:52:59.408Z,78.46
2023-03-21T06:55:30.090Z,78.64
2023-03-21T06:58:00.843Z,79.22
2023-03-21T07:00:29.103Z,78.92
2023-03-21T07:02:57.119Z,78.47
2023-03-21T07:05:27.507Z,77.24
2023-03-21T07:07:56.815Z,76.75
2023-03-21T07:10:28.708Z,77.79
2023-03-21T07:13:03.392Z,76.77
2023-03-21T07:15:47.189Z,76.33
2023-03-21T07:18:15.067Z,75.95
2023-03-21T07:20:51.032Z,76.25
2023-03-21T07:23:21.636Z,75.81
2023-03-21T07:25:50.131Z,74.08
2023-03-21T07:28:18.601Z,72.42
2023-03-21T07:30:52.268Z,72.24
2023-03-21T07:33:21.082Z,71.71
2023-03-21T07:35:49.110Z,70.03
2023-03-21T07:38:17.860Z,69.95
2023-03-21T07:40:48.690Z,67.91
2023-03-21T07:45:58.258Z,66.93
2023-03-21T07:48:28.221Z,65.16
2023-03-21T07:50:56.314Z,64.83
2023-03-21T07:53:26.588Z,64.76
2023-03-21T07:55:57.170Z,65.63
2023-03-21T07:58:25.157Z,64.40
2023-03-21T08:00:53.514Z,66.89
2023-03-21T08:03:21.790Z,64.35
2023-03-21T08:05:49.830Z,61.55
2023-03-21T08:08:17.818Z,60.40
2023-03-21T08:10:46.185Z,60.92
2023-03-21T08:13:15.600Z,59.70
2023-03-21T08:15:43.622Z,59.51
2023-03-21T08:18:13.708Z,58.44
2023-03-21T08:20:41.632Z,56.26
2023-03-21T08:23:09.626Z,57.02
2023-03-21T08:25:38.234Z,54.52
2023-03-21T08:28:06.636Z,55.78
2023-03-21T08:30:36.093Z,51.72
2023-03-21T08:33:05.060Z,54.12
2023-03-21T08:35:33.127Z,52.95
2023-03-21T08:38:03.686Z,54.88
2023-03-21T08:40:31.579Z,51.98
2023-03-21T08:42:59.568Z,52.34
2023-03-21T08:45:27.975Z,54.00
2023-03-21T08:47:57.672Z,51.28
2023-03-21T08:50:29.562Z,51.24
2023-03-21T08:52:57.584Z,49.68
2023-03-21T08:55:25.777Z,50.53
2023-03-21T08:57:53.688Z,49.24
2023-03-21T09:00:22.538Z,49.47
2023-03-21T09:02:54.466Z,51.13
2023-03-21T09:05:25.805Z,49.07
2023-03-21T09:07:54.295Z,48.80
2023-03-21T09:10:24.541Z,48.50
2023-03-21T09:12:56.168Z,50.74
2023-03-21T09:15:25.675Z,46.25
2023-03-21T09:17:58.698Z,44.92
2023-03-21T09:20:33.010Z,47.69
2023-03-21T09:23:01.732Z,49.11
2023-03-21T09:25:31.127Z,49.48
2023-03-21T09:28:00.521Z,46.16
2023-03-21T09:30:30.393Z,44.66
2023-03-21T09:33:01.718Z,43.67
2023-03-21T09:35:33.165Z,44.33
2023-03-21T09:38:02.398Z,43.72
2023-03-21T09:40:49.490Z,44.30
2023-03-21T09:43:31.138Z,43.49
2023-03-21T09:46:06.459Z,45.78
2023-03-21T09:48:50.508Z,46.24
2023-03-21T09:51:29.246Z,42.70
2023-03-21T09:54:02.822Z,41.32
2023-03-21T09:56:33.189Z,40.05
2023-03-21T09:59:03.644Z,40.88
2023-03-21T10:01:34.293Z,42.26
2023-03-21T10:04:05.886Z,41.66
2023-03-21T10:06:40.117Z,42.26
2023-03-21T10:09:17.587Z,42.48
2023-03-21T10:11:50.487Z,44.67
2023-03-21T10:14:22.449Z,45.08
2023-03-21T10:16:58.034Z,43.42
2023-03-21T10:19:28.480Z,45.09
2023-03-21T10:22:02.310Z,45.18
2023-03-21T10:24:34.351Z,44.89
2023-03-21T10:27:04.374Z,44.53
2023-03-21T10:29:37.077Z,44.27
2023-03-21T10:32:05.480Z,43.84
2023-03-21T10:34:39.971Z,42.88
2023-03-21T10:37:09.915Z,41.86
2023-03-21T10:39:41.504Z,44.34
2023-03-21T10:42:19.149Z,43.37
2023-03-21T10:44:49.657Z,43.00
2023-03-21T10:47:22.101Z,42.29
2023-03-21T10:50:06.913Z,43.43
2023-03-21T10:52:39.512Z,39.87
2023-03-21T10:55:18.638Z,41.56
2023-03-21T10:57:47.912Z,40.06
2023-03-21T11:00:22.993Z,39.28
2023-03-21T11:02:52.975Z,39.19
2023-03-21T11:05:24.916Z,40.25
2023-03-21T11:08:05.190Z,42.95
2023-03-21T11:10:35.726Z,43.55
2023-03-21T11:13:08.593Z,41.93
2023-03-21T11:15:50.161Z,45.17
2023-03-21T11:18:22.082Z,44.06
2023-03-21T11:20:54.164Z,44.76
2023-03-21T11:23:29.446Z,45.44
2023-03-21T11:26:00.730Z,45.63
2023-03-21T11:28:45.366Z,46.89
2023-03-21T11:31:13.867Z,45.59
2023-03-21T11:33:53.532Z,45.63
2023-03-21T11:36:35.262Z,44.26
2023-03-21T11:39:16.721Z,44.40
2023-03-21T11:41:49.250Z,45.46
2023-03-21T11:44:28.577Z,44.67
2023-03-21T11:46:56.759Z,45.83
2023-03-21T11:49:26.162Z,46.38
2023-03-21T11:52:16.179Z,47.33
2023-03-21T11:55:11.386Z,44.90
2023-03-21T11:57:48.406Z,44.45
2023-03-21T12:00:22.711Z,43.92
2023-03-21T12:03:38.192Z,46.10
2023-03-21T12:06:20.466Z,45.93
2023-03-21T12:09:00.278Z,45.95
2023-03-21T12:11:42.681Z,46.74
2023-03-21T12:14:20.587Z,46.35
2023-03-21T12:17:02.164Z,45.56
2023-03-21T12:19:49.040Z,45.66
2023-03-21T12:22:27.570Z,46.31
2023-03-21T12:24:57.325Z,46.62
2023-03-21T12:27:38.720Z,46.44
2023-03-21T12:30:31.727Z,46.54
2023-03-21T12:33:15.919Z,45.38
2023-03-21T12:35:56.276Z,46.41
2023-03-21T12:38:30.205Z,45.90
2023-03-21T12:41:21.558Z,45.59
2023-03-21T12:44:00.127Z,45.95
2023-03-21T12:46:35.045Z,44.73
2023-03-21T12:49:14.217Z,45.36
2023-03-21T12:51:46.940Z,44.48
2023-03-21T12:54:24.703Z,46.56
2023-03-21T12:56:56.724Z,46.32
2023-03-21T12:59:34.493Z,46.00
2023-03-21T13:02:16.042Z,45.61
2023-03-21T13:04:50.836Z,46.23
2023-03-21T13:07:22.037Z,44.10
2023-03-21T13:09:51.238Z,43.62
2023-03-21T13:12:29.570Z,42.46
2023-03-21T13:15:18.296Z,41.77
2023-03-21T13:17:57.765Z,43.02
2023-03-21T13:20:31.702Z,44.11
2023-03-21T13:23:00.502Z,42.85
2023-03-21T13:25:34.075Z,45.62
2023-03-21T13:28:03.901Z,45.85
2023-03-21T13:30:34.032Z,45.86
2023-03-21T13:33:07.569Z,46.42
2023-03-21T13:35:38.822Z,47.46
2023-03-21T13:38:12.953Z,45.77
2023-03-21T13:40:46.191Z,45.51
2023-03-21T13:43:35.246Z,45.04
2023-03-21T13:46:12.274Z,45.16
2023-03-21T13:48:59.491Z,44.57
2023-03-21T13:51:46.982Z,46.28
2023-03-21T13:54:27.518Z,48.92
2023-03-21T13:57:01.029Z,48.21
2023-03-21T13:59:41.325Z,46.20
2023-03-21T14:02:31.875Z,47.59
2023-03-21T14:05:06.880Z,47.84
2023-03-21T14:07:38.005Z,46.82
2023-03-21T14:10:10.903Z,47.16
2023-03-21T14:12:43.676Z,47.63
2023-03-21T14:15:20.817Z,46.41
2023-03-21T14:17:56.151Z,45.67
2023-03-21T14:20:26.386Z,46.85
2023-03-21T14:22:55.920Z,47.41
2023-03-21T14:25:37.258Z,47.81
2023-03-21T14:28:18.873Z,47.69
2023-03-21T14:30:52.276Z,48.26
2023-03-21T14:33:28.128Z,47.65
2023-03-21T14:35:59.908Z,46.47
2023-03-21T14:38:34.503Z,47.05
2023-03-21T14:41:02.446Z,48.07
2023-03-21T14:43:33.939Z,47.17
2023-03-21T14:46:02.560Z,47.33
2023-03-21T14:48:33.470Z,47.66
2023-03-21T14:51:06.111Z,48.08
2023-03-21T14:53:38.237Z,47.90
2023-03-21T14:56:11.494Z,47.17
2023-03-21T14:58:41.290Z,47.50
2023-03-21T15:01:16.798Z,47.70
2023-03-21T15:03:48.656Z,49.46
2023-03-21T15:06:17.548Z,49.85
2023-03-21T15:08:56.187Z,50.21
2023-03-21T15:11:37.594Z,49.63
2023-03-21T15:14:08.171Z,50.73
2023-03-21T15:16:37.320Z,50.92
2023-03-21T15:19:09.691Z,50.57
2023-03-21T15:21:42.353Z,50.93
2023-03-21T15:24:15.882Z,50.74
2023-03-21T15:26:46.637Z,51.41
2023-03-21T15:29:16.164Z,52.82
2023-03-21T15:31:45.023Z,51.28
2023-03-21T15:34:22.073Z,51.63
2023-03-21T15:37:20.331Z,51.78
2023-03-21T15:39:49.333Z,53.00
2023-03-21T15:42:33.156Z,52.55
2023-03-21T15:45:04.601Z,52.34
2023-03-21T15:47:51.349Z,52.91
2023-03-21T15:50:29.569Z,52.88
2023-03-21T15:53:00.679Z,52.90
2023-03-21T15:55:35.409Z,52.57
2023-03-21T15:58:07.626Z,51.94
2023-03-21T16:00:40.928Z,52.43
2023-03-21T16:03:16.895Z,52.52
2023-03-21T16:06:04.154Z,52.73
2023-03-21T16:08:36.253Z,53.39
2023-03-21T16:11:09.756Z,53.49
2023-03-21T16:13:40.415Z,54.38
2023-03-21T16:16:13.445Z,52.96
2023-03-21T16:18:41.564Z,53.32
2023-03-21T16:21:16.254Z,53.50
2023-03-21T16:23:44.363Z,53.40
2023-03-21T16:26:14.084Z,54.21
2023-03-21T16:28:41.953Z,54.29
2023-03-21T16:31:15.846Z,53.76
2023-03-21T16:33:44.268Z,54.06
2023-03-21T16:36:17.824Z,53.79
2023-03-21T16:38:46.517Z,54.47
2023-03-21T16:41:15.627Z,55.66
2023-03-21T16:43:47.108Z,56.34
2023-03-21T16:46:16.173Z,57.32
2023-03-21T16:48:46.592Z,56.87
2023-03-21T16:51:16.852Z,57.48
2023-03-21T16:53:44.814Z,58.62
2023-03-21T16:56:18.348Z,58.55
2023-03-21T16:58:46.361Z,58.19
2023-03-21T17:01:19.264Z,58.47
2023-03-21T17:03:48.263Z,58.69
2023-03-21T17:06:19.746Z,57.87
2023-03-21T17:08:47.826Z,58.86
2023-03-21T17:11:20.094Z,58.94
2023-03-21T17:13:48.618Z,59.41
2023-03-21T17:16:19.170Z,59.46
2023-03-21T17:18:47.839Z,59.38
2023-03-21T17:21:20.772Z,59.27
2023-03-21T17:23:48.852Z,59.37
2023-03-21T17:26:21.201Z,59.75
2023-03-21T17:28:49.298Z,60.52
2023-03-21T17:31:18.755Z,61.49
2023-03-21T17:33:47.011Z,61.57
2023-03-21T17:36:18.042Z,60.81
2023-03-21T17:38:46.591Z,60.69
2023-03-21T17:41:16.454Z,61.59
2023-03-21T17:43:44.819Z,61.08
2023-03-21T17:46:15.679Z,61.26
2023-03-21T17:48:45.403Z,61.54
2023-03-21T17:51:16.549Z,61.56
2023-03-21T17:53:47.288Z,60.99
2023-03-21T17:56:21.238Z,60.92
2023-03-21T17:58:49.202Z,60.77
2023-03-21T18:01:17.080Z,60.93
2023-03-21T18:03:45.031Z,60.71
2023-03-21T18:06:16.322Z,60.90
2023-03-21T18:08:46.257Z,61.90
2023-03-21T18:11:15.250Z,61.82
2023-03-21T18:13:44.747Z,62.16
2023-03-21T18:16:15.547Z,62.14
2023-03-21T18:18:45.108Z,62.29
2023-03-21T18:21:13.072Z,62.61
2023-03-21T18:23:41.993Z,62.15
2023-03-21T18:26:13.288Z,62.89
2023-03-21T18:28:41.526Z,63.28
2023-03-21T18:31:17.994Z,62.98
2023-03-21T18:33:48.953Z,63.01
2023-03-21T18:36:24.684Z,63.22
2023-03-21T18:38:57.029Z,63.56
2023-03-21T18:41:29.820Z,64.72
2023-03-21T18:44:04.694Z,64.64
2023-03-21T18:46:40.689Z,64.08
2023-03-21T18:49:51.938Z,63.51
2023-03-21T18:51:57.631Z,62.72
2023-03-21T18:54:26.564Z,62.30
2023-03-21T19:00:12.541Z,62.00
2023-03-21T19:02:45.694Z,61.73
2023-03-21T19:05:24.532Z,62.14
2023-03-21T19:07:54.316Z,62.30
2023-03-21T19:10:25.181Z,63.27
2023-03-21T19:12:56.354Z,63.21
2023-03-21T19:15:25.241Z,63.21
2023-03-21T19:18:33.034Z,63.40
2023-03-21T19:20:50.215Z,63.73
2023-03-21T19:23:53.286Z,63.81
2023-03-21T19:26:46.627Z,64.56
2023-03-21T19:29:29.501Z,66.26
2023-03-21T19:32:13.378Z,65.94
2023-03-21T19:35:01.577Z,66.21
2023-03-21T19:37:52.687Z,66.47
2023-03-21T19:40:29.776Z,65.97
2023-03-21T19:42:58.209Z,66.14
2023-03-21T19:45:28.778Z,67.06
2023-03-21T19:48:01.349Z,66.83
2023-03-21T19:51:13.834Z,66.05
2023-03-21T19:53:43.005Z,66.07
2023-03-21T19:56:37.617Z,65.79
2023-03-21T19:59:22.785Z,65.69
2023-03-21T20:02:25.039Z,65.62
2023-03-21T20:04:51.387Z,66.09
2023-03-21T20:07:23.237Z,66.17
2023-03-21T20:09:54.807Z,66.09
2023-03-21T20:12:24.267Z,65.32
2023-03-21T20:15:01.616Z,65.47
2023-03-21T20:17:41.126Z,66.39
2023-03-21T20:20:14.047Z,66.76
2023-03-21T20:23:05.604Z,65.83
2023-03-21T20:25:33.358Z,65.65
2023-03-21T20:28:25.819Z,65.75
2023-03-21T20:30:56.828Z,66.47
2023-03-21T20:33:26.995Z,66.23
2023-03-21T20:38:51.456Z,66.50
2023-03-21T20:41:19.858Z,66.39
2023-03-21T20:44:34.321Z,66.22
2023-03-21T20:46:39.191Z,66.17
2023-03-21T20:49:08.658Z,66.27
2023-03-21T20:54:24.568Z,66.60
2023-03-21T20:56:52.537Z,66.99
2023-03-21T20:59:26.527Z,66.35
2023-03-21T21:01:55.754Z,66.80
2023-03-21T21:04:43.156Z,67.01
2023-03-21T21:07:15.909Z,66.80
2023-03-21T21:09:44.849Z,66.56
2023-03-21T21:12:14.128Z,65.99
2023-03-21T21:14:43.883Z,65.45
2023-03-21T21:17:50.951Z,65.90
2023-03-21T21:20:02.649Z,65.63
2023-03-21T21:22:31.561Z,66.08
2023-03-21T21:25:00.018Z,66.29
2023-03-21T21:27:28.564Z,66.10
2023-03-21T21:29:57.566Z,66.51
2023-03-21T21:32:25.675Z,66.63
2023-03-21T21:34:53.778Z,66.79
2023-03-21T21:37:23.072Z,67.70
2023-03-21T21:39:51.035Z,68.26
2023-03-21T21:42:18.870Z,68.56
2023-03-21T21:44:47.348Z,70.05
2023-03-21T21:47:15.823Z,70.32
2023-03-21T21:49:43.930Z,70.19
2023-03-21T21:52:13.697Z,70.01
2023-03-21T21:54:45.731Z,69.45
2023-03-21T21:57:14.063Z,68.99
2023-03-21T21:59:42.243Z,68.79
2023-03-21T22:02:13.718Z,69.38
2023-03-21T22:04:41.827Z,69.32
2023-03-21T22:07:14.400Z,69.99
2023-03-21T22:09:44.443Z,70.67
2023-03-21T22:12:12.282Z,71.70
2023-03-21T22:14:40.361Z,71.54
2023-03-21T22:17:08.367Z,71.46
2023-03-21T22:19:37.417Z,70.88
2023-03-21T22:22:07.188Z,70.61
2023-03-21T22:24:36.138Z,70.49
2023-03-21T22:27:05.648Z,70.71
2023-03-21T22:29:33.629Z,70.55
2023-03-21T22:32:01.668Z,70.44
2023-03-21T22:34:29.655Z,70.69
2023-03-21T22:36:57.798Z,70.28
2023-03-21T22:39:26.486Z,70.29
2023-03-21T22:41:55.131Z,70.54
2023-03-21T22:44:24.793Z,71.48
2023-03-21T22:46:52.663Z,71.19
2023-03-21T22:49:21.503Z,71.94
2023-03-21T22:51:49.821Z,71.91
2023-03-21T22:54:17.882Z,72.53
2023-03-21T22:56:45.917Z,72.71
2023-03-21T22:59:14.019Z,72.94
2023-03-21T23:01:43.582Z,74.37
2023-03-21T23:04:11.806Z,73.44
2023-03-21T23:06:40.631Z,73.36
2023-03-21T23:09:09.221Z,72.53
2023-03-21T23:11:37.543Z,71.92
2023-03-21T23:14:08.327Z,71.92
2023-03-21T23:16:38.267Z,72.09
2023-03-21T23:19:08.956Z,72.79
2023-03-21T23:21:38.425Z,72.73
2023-03-21T23:24:06.906Z,73.08
2023-03-21T23:26:37.408Z,73.93
2023-03-21T23:29:07.932Z,73.39
2023-03-21T23:31:36.571Z,74.40
2023-03-21T23:34:05.330Z,74.02
2023-03-21T23:36:34.848Z,74.22
2023-03-21T23:39:02.787Z,75.30
2023-03-21T23:41:30.687Z,75.20
2023-03-21T23:43:58.715Z,75.60
2023-03-21T23:46:29.581Z,75.99
2023-03-21T23:48:57.645Z,76.13
2023-03-21T23:51:25.551Z,75.90
2023-03-21T23:53:56.487Z,75.42
2023-03-21T23:56:28.107Z,75.58
2023-03-21T23:58:57.842Z,75.66
